createdAt,value
2018-06-12T00:04:12.396Z,15.20
2018-06-12T00:06:42.983Z,15.10
2018-06-12T00:09:13.216Z,15.20
2018-06-12T00:11:44.024Z,15.20
2018-06-12T00:14:14.563Z,15.20
2018-06-12T00:16:44.792Z,15.20
2018-06-12T00:19:15.287Z,15.10
2018-06-12T00:21:46.123Z,15.20
2018-06-12T00:24:16.743Z,15.10
2018-06-12T00:26:47.559Z,15.00
2018-06-12T00:29:17.799Z,15.10
2018-06-12T00:31:48.467Z,15.10
2018-06-12T00:34:18.999Z,15.20
2018-06-12T00:36:49.392Z,15.10
2018-06-12T00:39:19.627Z,15.10
2018-06-12T00:41:50.144Z,15.10
2018-06-12T00:44:20.442Z,15.10
2018-06-12T00:46:50.663Z,15.00
2018-06-12T00:49:21.167Z,15.00
2018-06-12T00:51:51.391Z,15.00
2018-06-12T00:54:21.611Z,15.00
2018-06-12T00:57:05.639Z,15.00
2018-06-12T00:59:35.904Z,15.10
2018-06-12T01:02:06.383Z,15.10
2018-06-12T01:04:36.886Z,15.10
2018-06-12T01:07:07.118Z,15.00
2018-06-12T01:09:37.405Z,15.10
2018-06-12T01:12:07.935Z,15.10
2018-06-12T01:14:38.447Z,15.20
2018-06-12T01:17:08.995Z,15.10
2018-06-12T01:19:39.403Z,15.00
2018-06-12T01:22:09.698Z,15.00
2018-06-12T01:24:39.983Z,15.30
2018-06-12T01:27:10.523Z,15.30
2018-06-12T01:29:40.735Z,15.20
2018-06-12T01:32:10.959Z,15.20
2018-06-12T01:34:41.529Z,15.10
2018-06-12T01:37:12.225Z,15.10
2018-06-12T01:39:42.543Z,15.00
2018-06-12T01:42:13.043Z,15.10
2018-06-12T01:44:43.267Z,15.00
2018-06-12T01:47:13.788Z,15.00
2018-06-12T01:49:44.359Z,15.10
2018-06-12T01:52:14.576Z,15.10
2018-06-12T01:54:44.865Z,15.20
2018-06-12T01:57:15.471Z,15.20
2018-06-12T01:59:45.787Z,15.20
2018-06-12T02:02:16.031Z,15.10
2018-06-12T02:04:46.291Z,15.20
2018-06-12T02:07:16.563Z,15.10
2018-06-12T02:09:46.899Z,15.10
2018-06-12T02:12:17.219Z,15.00
2018-06-12T02:14:47.549Z,15.00
2018-06-12T02:19:48.505Z,14.90
2018-06-12T02:22:18.932Z,15.00
2018-06-12T02:24:49.826Z,15.00
2018-06-12T02:27:20.292Z,14.90
2018-06-12T02:29:50.519Z,14.80
2018-06-12T02:32:21.155Z,14.80
2018-06-12T02:34:51.400Z,14.90
2018-06-12T02:37:21.720Z,14.80
2018-06-12T02:39:52.512Z,14.90
2018-06-12T02:42:23.083Z,15.00
2018-06-12T02:44:53.300Z,14.80
2018-06-12T02:47:24.312Z,14.90
2018-06-12T02:49:54.552Z,14.90
2018-06-12T02:52:24.855Z,14.90
2018-06-12T02:54:55.280Z,14.80
2018-06-12T02:57:25.951Z,14.90
2018-06-12T02:59:56.176Z,14.90
2018-06-12T03:02:27.279Z,15.00
2018-06-12T03:04:58.504Z,15.00
2018-06-12T03:09:59.837Z,15.00
2018-06-12T03:12:30.339Z,15.00
2018-06-12T03:15:00.675Z,15.00
2018-06-12T03:17:31.420Z,15.00
2018-06-12T03:20:01.684Z,15.20
2018-06-12T03:22:32.319Z,15.30
2018-06-12T03:25:02.960Z,15.20
2018-06-12T03:27:33.181Z,15.20
2018-06-12T03:30:03.391Z,15.10
2018-06-12T03:32:33.620Z,15.30
2018-06-12T03:35:03.857Z,15.30
2018-06-12T03:37:34.531Z,15.20
2018-06-12T03:40:04.824Z,15.00
2018-06-12T03:42:35.051Z,15.00
2018-06-12T03:45:05.844Z,15.00
2018-06-12T03:47:36.055Z,15.10
2018-06-12T03:50:06.320Z,15.10
2018-06-12T03:52:37.388Z,15.00
2018-06-12T03:55:07.618Z,15.00
2018-06-12T03:57:37.938Z,15.00
2018-06-12T04:00:08.572Z,15.10
2018-06-12T04:02:38.834Z,15.00
2018-06-12T04:05:09.409Z,15.10
2018-06-12T04:07:40.033Z,15.20
2018-06-12T04:10:10.315Z,15.10
2018-06-12T04:12:40.613Z,15.00
2018-06-12T04:15:10.819Z,15.10
2018-06-12T04:17:41.423Z,15.20
2018-06-12T04:20:11.727Z,15.20
2018-06-12T04:22:42.688Z,15.40
2018-06-12T04:25:12.976Z,15.50
2018-06-12T04:27:43.188Z,15.50
2018-06-12T04:30:14.324Z,15.50
2018-06-12T04:32:45.663Z,15.50
2018-06-12T04:35:16.236Z,15.60
2018-06-12T04:37:46.675Z,15.60
2018-06-12T04:40:16.968Z,15.70
2018-06-12T04:42:47.452Z,15.70
2018-06-12T04:45:17.920Z,15.70
2018-06-12T04:47:48.152Z,15.60
2018-06-12T04:50:18.400Z,15.70
2018-06-12T04:52:48.991Z,15.80
2018-06-12T04:55:19.274Z,16.00
2018-06-12T04:57:50.800Z,15.90
2018-06-12T05:00:21.449Z,16.00
2018-06-12T05:02:52.296Z,16.10
2018-06-12T05:05:29.971Z,15.90
2018-06-12T05:08:00.474Z,15.70
2018-06-12T05:10:30.730Z,15.70
2018-06-12T05:13:02.564Z,15.80
2018-06-12T05:15:33.003Z,15.80
2018-06-12T05:18:03.383Z,16.00
2018-06-12T05:20:33.919Z,16.00
2018-06-12T05:23:04.727Z,15.70
2018-06-12T05:25:35.024Z,15.70
2018-06-12T05:28:05.555Z,15.70
2018-06-12T05:30:36.140Z,15.80
2018-06-12T05:33:06.602Z,15.80
2018-06-12T05:35:37.984Z,15.70
2018-06-12T05:38:08.391Z,15.70
2018-06-12T05:40:38.621Z,15.90
2018-06-12T05:43:09.251Z,16.00
2018-06-12T05:45:39.517Z,16.20
2018-06-12T05:48:09.771Z,16.40
2018-06-12T05:50:40.024Z,16.80
2018-06-12T05:53:10.615Z,16.90
2018-06-12T05:55:41.295Z,16.80
2018-06-12T05:58:12.044Z,16.80
2018-06-12T06:00:42.311Z,16.70
2018-06-12T06:03:13.051Z,16.70
2018-06-12T06:05:43.356Z,16.60
2018-06-12T06:08:14.071Z,16.70
2018-06-12T06:10:45.703Z,16.60
2018-06-12T06:13:15.987Z,16.60
2018-06-12T06:15:46.844Z,16.50
2018-06-12T06:18:17.359Z,16.40
2018-06-12T06:20:47.829Z,16.50
2018-06-12T06:23:19.243Z,16.60
2018-06-12T06:25:49.935Z,16.80
2018-06-12T06:28:20.590Z,16.80
2018-06-12T06:33:22.919Z,17.00
2018-06-12T06:38:25.311Z,17.10
2018-06-12T06:43:26.937Z,17.10
2018-06-12T06:45:58.360Z,16.90
2018-06-12T06:48:31.919Z,17.20
2018-06-12T06:51:02.963Z,17.00
2018-06-12T06:53:33.368Z,17.20
2018-06-12T06:56:06.824Z,17.30
2018-06-12T06:58:38.259Z,17.20
2018-06-12T07:01:08.520Z,17.00
2018-06-12T07:06:11.931Z,16.90
2018-06-12T07:08:42.329Z,17.10
2018-06-12T07:11:12.823Z,17.00
2018-06-12T07:16:15.699Z,16.80
2018-06-12T07:18:46.349Z,16.80
2018-06-12T07:21:22.544Z,17.00
2018-06-12T07:28:52.902Z,16.60
2018-06-12T07:31:23.143Z,16.50
2018-06-12T07:33:53.858Z,16.60
2018-06-12T07:36:24.088Z,16.90
2018-06-12T07:38:54.495Z,16.40
2018-06-12T07:41:24.729Z,16.80
2018-06-12T07:43:55.064Z,16.50
2018-06-12T07:46:25.460Z,16.60
2018-06-12T07:48:56.140Z,16.90
2018-06-12T07:51:26.664Z,16.80
2018-06-12T07:53:57.478Z,16.70
2018-06-12T07:56:27.743Z,16.60
2018-06-12T07:58:58.687Z,16.50
2018-06-12T08:01:29.023Z,16.60
2018-06-12T08:03:59.556Z,16.70
2018-06-12T08:06:29.785Z,16.70
2018-06-12T08:09:00.103Z,16.40
2018-06-12T08:11:30.523Z,16.50
2018-06-12T08:14:00.815Z,16.70
2018-06-12T08:16:32.368Z,17.00
2018-06-12T08:19:02.645Z,17.10
2018-06-12T08:21:32.985Z,16.60
2018-06-12T08:24:04.147Z,16.70
2018-06-12T08:26:34.427Z,16.80
2018-06-12T08:29:04.904Z,17.20
2018-06-12T08:31:35.151Z,17.10
2018-06-12T08:34:05.740Z,17.10
2018-06-12T08:36:36.541Z,17.00
2018-06-12T08:39:08.646Z,17.10
2018-06-12T08:41:39.051Z,17.40
2018-06-12T08:44:10.023Z,17.40
2018-06-12T08:46:40.244Z,17.40
2018-06-12T08:49:10.995Z,17.00
2018-06-12T08:51:41.299Z,17.10
2018-06-12T08:54:11.659Z,17.30
2018-06-12T08:56:42.275Z,17.10
2018-06-12T08:59:12.911Z,16.90
2018-06-12T09:01:43.158Z,16.90
2018-06-12T09:04:13.840Z,16.90
2018-06-12T09:06:44.087Z,16.50
2018-06-12T09:09:14.701Z,16.30
2018-06-12T09:11:51.527Z,16.50
2018-06-12T09:14:25.180Z,16.70
2018-06-12T09:16:55.515Z,16.60
2018-06-12T09:19:25.897Z,16.80
2018-06-12T09:21:56.357Z,16.80
2018-06-12T09:24:27.203Z,17.00
2018-06-12T09:26:57.504Z,17.30
2018-06-12T09:29:27.726Z,17.30
2018-06-12T09:31:57.964Z,17.40
2018-06-12T09:34:28.672Z,17.40
2018-06-12T09:36:58.967Z,17.40
2018-06-12T09:39:29.331Z,17.30
2018-06-12T09:41:59.616Z,17.50
2018-06-12T09:44:29.951Z,17.80
2018-06-12T09:47:00.508Z,18.40
2018-06-12T09:49:31.116Z,18.90
2018-06-12T09:52:01.396Z,19.30
2018-06-12T09:54:41.022Z,19.10
2018-06-12T09:57:11.583Z,19.10
2018-06-12T09:59:42.292Z,18.40
2018-06-12T10:02:12.602Z,17.90
2018-06-12T10:04:42.896Z,18.00
2018-06-12T10:07:13.247Z,17.80
2018-06-12T10:09:43.663Z,17.80
2018-06-12T10:12:13.946Z,17.60
2018-06-12T10:14:44.980Z,17.80
2018-06-12T10:17:15.256Z,17.70
2018-06-12T10:19:45.601Z,17.50
2018-06-12T10:22:15.899Z,17.60
2018-06-12T10:24:46.200Z,17.80
2018-06-12T10:27:16.512Z,17.70
2018-06-12T10:29:46.752Z,17.30
2018-06-12T10:32:16.979Z,17.50
2018-06-12T10:34:47.611Z,17.60
2018-06-12T10:37:17.864Z,18.20
2018-06-12T10:39:48.555Z,18.80
2018-06-12T10:42:18.815Z,19.20
2018-06-12T10:44:49.088Z,18.70
2018-06-12T10:47:19.911Z,18.60
2018-06-12T10:49:50.244Z,19.30
2018-06-12T10:52:20.769Z,19.50
2018-06-12T10:54:51.540Z,19.40
2018-06-12T10:57:21.812Z,19.20
2018-06-12T10:59:52.475Z,18.70
2018-06-12T11:02:22.812Z,18.90
2018-06-12T11:04:53.895Z,18.50
2018-06-12T11:07:24.763Z,18.40
2018-06-12T11:09:55.964Z,18.90
2018-06-12T11:12:30.946Z,18.30
2018-06-12T11:15:02.363Z,18.40
2018-06-12T11:17:32.648Z,18.10
2018-06-12T11:22:21.414Z,18.70
2018-06-12T11:24:52.283Z,18.80
2018-06-12T11:27:23.574Z,18.60
2018-06-12T11:29:54.043Z,18.40
2018-06-12T11:32:24.363Z,17.90
2018-06-12T11:34:54.607Z,17.70
2018-06-12T11:37:24.841Z,17.90
2018-06-12T11:39:55.551Z,18.10
2018-06-12T11:42:25.947Z,18.30
2018-06-12T11:44:56.175Z,18.80
2018-06-12T11:47:27.206Z,19.30
2018-06-12T11:49:57.547Z,19.40
2018-06-12T11:52:27.807Z,19.20
2018-06-12T11:54:58.098Z,18.60
2018-06-12T11:57:28.742Z,18.20
2018-06-12T11:59:59.562Z,18.00
2018-06-12T12:02:30.078Z,18.20
2018-06-12T12:05:00.438Z,18.30
2018-06-12T12:07:30.754Z,17.80
2018-06-12T12:10:01.391Z,17.70
2018-06-12T12:12:31.905Z,17.80
2018-06-12T12:15:02.252Z,17.80
2018-06-12T12:17:32.996Z,17.70
2018-06-12T12:20:03.348Z,18.10
2018-06-12T12:22:33.964Z,18.30
2018-06-12T12:25:04.357Z,18.40
2018-06-12T12:27:35.053Z,18.50
2018-06-12T12:30:10.803Z,18.90
2018-06-12T12:32:41.099Z,18.50
2018-06-12T12:35:11.547Z,18.80
2018-06-12T12:37:42.275Z,19.10
2018-06-12T12:40:12.499Z,19.40
2018-06-12T12:42:42.947Z,19.20
2018-06-12T12:45:13.259Z,19.50
2018-06-12T12:47:43.499Z,19.20
2018-06-12T12:52:44.000Z,19.60
2018-06-12T12:55:14.393Z,19.30
2018-06-12T12:57:44.967Z,19.70
2018-06-12T13:00:16.093Z,19.00
2018-06-12T13:02:46.495Z,18.80
2018-06-12T13:05:16.788Z,18.70
2018-06-12T13:07:47.167Z,18.10
2018-06-12T13:10:18.496Z,18.50
2018-06-12T13:12:50.071Z,18.60
2018-06-12T13:15:20.912Z,18.40
2018-06-12T13:17:52.076Z,19.00
2018-06-12T13:20:23.618Z,18.50
2018-06-12T13:22:54.772Z,18.40
2018-06-12T13:25:25.452Z,18.80
2018-06-12T13:27:56.078Z,18.60
2018-06-12T13:30:26.867Z,18.70
2018-06-12T13:32:57.127Z,18.60
2018-06-12T13:35:27.916Z,18.90
2018-06-12T13:37:58.733Z,18.80
2018-06-12T13:40:29.415Z,19.40
2018-06-12T13:42:59.663Z,19.50
2018-06-12T13:45:30.037Z,19.30
2018-06-12T13:48:00.320Z,19.10
2018-06-12T13:50:30.915Z,19.10
2018-06-12T13:53:01.401Z,19.10
2018-06-12T13:55:31.691Z,18.80
2018-06-12T13:58:02.033Z,18.50
2018-06-12T14:00:32.451Z,18.60
2018-06-12T14:03:04.516Z,18.70
2018-06-12T14:05:37.883Z,18.40
2018-06-12T14:08:09.175Z,17.70
2018-06-12T14:10:39.558Z,17.30
2018-06-12T14:13:09.924Z,17.20
2018-06-12T14:15:40.606Z,17.40
2018-06-12T14:18:11.448Z,17.70
2018-06-12T14:20:42.281Z,18.00
2018-06-12T14:23:12.908Z,18.10
2018-06-12T14:25:43.710Z,18.30
2018-06-12T14:28:15.463Z,17.90
2018-06-12T14:30:46.335Z,17.40
2018-06-12T14:33:17.103Z,17.30
2018-06-12T14:35:47.559Z,17.50
2018-06-12T14:38:24.445Z,17.40
